Time;durP1;ratioP1;P1;durP2;ratioP2;P2;SDS_P1;SDS_P2;PMS_P1;PMS_P2;Temp;Humidity;BMP_temperature;BMP_pressure;BME280_temperature;BME280_humidity;BME280_pressure;Samples;Min_cycle;Max_cycle;Signal;HPM_P1;HPM_P2
2022/11/03 00:01:31;;;;;;;9.80;6.80;;;7.50;99.90;;;;;;4968822;28;20666;-87
2022/11/03 00:03:58;;;;;;;7.83;6.60;;;7.60;99.90;;;;;;4970521;28;21548;-87
2022/11/03 00:06:25;;;;;;;9.30;6.67;;;7.40;99.90;;;;;;4968840;28;20680;-87
2022/11/03 00:08:53;;;;;;;7.43;6.67;;;7.20;99.90;;;;;;4971825;28;20643;-87
2022/11/03 00:11:19;;;;;;;8.00;6.57;;;7.30;99.90;;;;;;4971208;28;20818;-90
2022/11/03 00:13:46;;;;;;;9.07;7.23;;;7.30;99.90;;;;;;4973389;28;20640;-88
2022/11/03 00:16:13;;;;;;;8.30;6.60;;;7.20;99.90;;;;;;4970037;28;20662;-89
2022/11/03 00:18:40;;;;;;;8.23;7.43;;;7.50;99.90;;;;;;4971297;28;20650;-90
2022/11/03 00:21:09;;;;;;;8.50;7.00;;;7.10;99.90;;;;;;4971184;28;20665;-89
2022/11/03 00:23:37;;;;;;;10.30;7.83;;;7.40;99.90;;;;;;4973936;28;20633;-90
2022/11/03 00:26:08;;;;;;;11.23;8.00;;;7.50;99.90;;;;;;4974918;28;20649;-89
2022/11/03 00:28:36;;;;;;;8.17;7.13;;;7.30;99.90;;;;;;4973261;28;21202;-89
2022/11/03 00:31:08;;;;;;;6.83;6.17;;;7.20;99.90;;;;;;4976484;28;20998;-90
2022/11/03 00:33:35;;;;;;;7.70;6.90;;;7.20;99.90;;;;;;4974713;28;20688;-90
2022/11/03 00:36:03;;;;;;;11.20;7.40;;;7.30;99.90;;;;;;4973339;28;20657;-90
2022/11/03 00:38:30;;;;;;;9.17;6.70;;;6.80;99.90;;;;;;4970893;28;20630;-89
2022/11/03 00:40:58;;;;;;;9.00;7.70;;;7.30;99.90;;;;;;4970307;28;20712;-90
2022/11/03 00:43:28;;;;;;;11.03;7.23;;;7.30;99.90;;;;;;4972482;28;20633;-90
2022/11/03 00:45:55;;;;;;;12.53;7.30;;;7.20;99.90;;;;;;4973853;28;20657;-89
2022/11/03 00:48:32;;;;;;;8.37;7.47;;;7.30;99.90;;;;;;4971854;28;20639;-88
2022/11/03 00:51:05;;;;;;;8.37;7.37;;;7.30;99.90;;;;;;4973177;28;20636;-88
2022/11/03 00:53:33;;;;;;;7.83;7.00;;;7.20;99.90;;;;;;4971047;28;20629;-88
2022/11/03 00:56:01;;;;;;;11.20;7.83;;;7.10;99.90;;;;;;4972672;28;20661;-89
2022/11/03 00:58:29;;;;;;;8.97;6.77;;;6.50;99.90;;;;;;4967393;28;20626;-88
2022/11/03 01:01:01;;;;;;;10.30;6.93;;;7.00;99.90;;;;;;4975391;28;21249;-90
2022/11/03 01:03:28;;;;;;;9.73;6.87;;;7.10;99.90;;;;;;4973493;28;20629;-90
2022/11/03 01:08:39;;;;;;;11.13;7.20;;;7.00;99.90;;;;;;4968098;28;21114;-89
2022/11/03 01:13:53;;;;;;;9.57;7.00;;;6.80;99.90;;;;;;4968925;28;20613;-88
2022/11/03 01:16:21;;;;;;;7.90;7.10;;;6.60;99.90;;;;;;4966333;28;20646;-87
2022/11/03 01:18:48;;;;;;;9.50;7.50;;;6.90;99.90;;;;;;4968296;28;20629;-88
2022/11/03 01:21:15;;;;;;;11.43;7.50;;;6.70;99.90;;;;;;4972707;28;20669;-87
2022/11/03 01:23:42;;;;;;;12.00;6.87;;;6.60;99.90;;;;;;4968931;28;20632;-88
2022/11/03 01:26:11;;;;;;;9.70;6.50;;;6.80;99.90;;;;;;4967392;28;20696;-87
2022/11/03 01:28:39;;;;;;;9.57;7.07;;;6.70;99.90;;;;;;4968819;28;20644;-88
2022/11/03 01:31:10;;;;;;;7.07;6.37;;;6.70;99.90;;;;;;4968819;28;20986;-88
2022/11/03 01:33:37;;;;;;;12.90;7.30;;;6.80;99.90;;;;;;4964736;28;20633;-88
2022/11/03 01:36:04;;;;;;;9.70;7.27;;;6.60;99.90;;;;;;4968333;28;20656;-87
2022/11/03 01:38:31;;;;;;;7.87;7.07;;;6.50;99.90;;;;;;4972659;28;20629;-88
2022/11/03 01:40:58;;;;;;;11.07;8.77;;;6.60;99.90;;;;;;4966050;28;21367;-88
2022/11/03 01:43:27;;;;;;;10.70;7.53;;;6.20;99.90;;;;;;4972007;28;20713;-88
2022/11/03 01:46:03;;;;;;;8.13;7.10;;;6.50;99.90;;;;;;4970469;28;20735;-88
2022/11/03 01:48:34;;;;;;;10.30;6.93;;;6.50;99.90;;;;;;4972814;28;20629;-87
2022/11/03 01:51:02;;;;;;;9.37;7.57;;;6.60;99.90;;;;;;4973199;28;20628;-88
2022/11/03 01:53:30;;;;;;;8.77;7.10;;;6.60;99.90;;;;;;4974521;28;20643;-87
2022/11/03 01:55:58;;;;;;;9.80;7.60;;;6.40;99.90;;;;;;4966214;28;20656;-88
2022/11/03 01:58:30;;;;;;;8.10;7.30;;;6.50;99.90;;;;;;4969516;28;20993;-89
2022/11/03 02:00:58;;;;;;;8.57;7.33;;;6.40;99.90;;;;;;4967245;28;20633;-88
2022/11/03 02:03:26;;;;;;;8.00;7.03;;;6.40;99.90;;;;;;4969224;28;20633;-88
2022/11/03 02:05:56;;;;;;;8.90;7.20;;;6.40;99.90;;;;;;4968285;28;20696;-88
2022/11/03 02:08:28;;;;;;;9.73;7.93;;;5.80;99.90;;;;;;4971649;28;20637;-88
2022/11/03 02:10:54;;;;;;;9.77;8.37;;;6.40;99.90;;;;;;4968882;28;20650;-89
2022/11/03 02:13:23;;;;;;;8.63;7.67;;;6.40;99.90;;;;;;4967393;28;21183;-88
2022/11/03 02:15:53;;;;;;;7.80;7.00;;;6.30;99.90;;;;;;4969550;28;20670;-88
2022/11/03 02:18:22;;;;;;;8.47;7.67;;;6.40;99.90;;;;;;4965353;28;20626;-88
2022/11/03 02:20:59;;;;;;;8.43;7.40;;;5.90;99.90;;;;;;4969110;28;20648;-88
2022/11/03 02:23:32;;;;;;;8.90;7.37;;;6.30;99.90;;;;;;4966472;28;20669;-88
2022/11/03 02:26:01;;;;;;;8.30;6.50;;;6.20;99.90;;;;;;4966988;28;21174;-89
2022/11/03 02:28:29;;;;;;;9.10;7.70;;;6.40;99.90;;;;;;4966672;28;20639;-88
2022/11/03 02:31:07;;;;;;;8.23;7.43;;;6.40;99.90;;;;;;4968428;28;20647;-88
2022/11/03 02:33:43;;;;;;;8.70;7.83;;;6.50;99.90;;;;;;4967958;28;20628;-88
2022/11/03 02:36:17;;;;;;;11.10;7.83;;;6.20;99.90;;;;;;4967830;28;21378;-87
2022/11/03 02:38:48;;;;;;;8.07;6.50;;;6.30;99.90;;;;;;4958126;28;20646;-88
2022/11/03 02:41:17;;;;;;;10.63;7.73;;;6.20;99.90;;;;;;4967073;28;21028;-87
2022/11/03 02:43:46;;;;;;;9.03;7.30;;;6.30;99.90;;;;;;4970300;28;21286;-87
2022/11/03 02:46:16;;;;;;;10.83;7.67;;;6.10;99.90;;;;;;4970861;28;21324;-87
2022/11/03 02:48:42;;;;;;;8.30;7.10;;;6.30;99.90;;;;;;4970398;28;20634;-88
2022/11/03 02:51:09;;;;;;;8.97;6.57;;;6.10;99.90;;;;;;4976436;28;21090;-88
2022/11/03 02:53:42;;;;;;;12.23;8.47;;;6.10;99.90;;;;;;4977894;28;21190;-88
2022/11/03 02:56:15;;;;;;;12.83;8.13;;;6.10;99.90;;;;;;4967346;28;20649;-88
2022/11/03 02:58:52;;;;;;;9.40;7.97;;;5.80;99.90;;;;;;4964419;28;21393;-89
2022/11/03 03:01:25;;;;;;;7.63;6.93;;;6.20;99.90;;;;;;4967157;28;20641;-89
2022/11/03 03:03:57;;;;;;;9.07;6.67;;;6.20;99.90;;;;;;4965282;28;21319;-89
2022/11/03 03:06:28;;;;;;;7.13;6.43;;;6.40;99.90;;;;;;4967702;28;20668;-88
2022/11/03 03:09:00;;;;;;;7.63;6.80;;;6.10;99.90;;;;;;4969570;28;21273;-88
2022/11/03 03:11:36;;;;;;;8.57;7.13;;;6.30;99.90;;;;;;4977078;28;20975;-88
2022/11/03 03:14:09;;;;;;;8.60;7.70;;;5.60;99.90;;;;;;4973894;28;20609;-89
2022/11/03 03:16:48;;;;;;;10.57;7.80;;;6.20;99.90;;;;;;4967277;28;20657;-88
2022/11/03 03:19:23;;;;;;;9.83;7.80;;;6.00;99.90;;;;;;4975163;28;21217;-88
2022/11/03 03:21:54;;;;;;;9.10;7.77;;;6.30;99.90;;;;;;4969776;28;20676;-88
2022/11/03 03:24:29;;;;;;;13.27;8.53;;;6.30;99.90;;;;;;4968372;28;20628;-90
2022/11/03 03:26:58;;;;;;;9.17;8.00;;;6.20;99.90;;;;;;4967757;28;20653;-88
2022/11/03 03:29:31;;;;;;;8.40;7.53;;;6.50;99.90;;;;;;4968985;28;20855;-88
2022/11/03 03:32:02;;;;;;;9.97;8.90;;;6.20;99.90;;;;;;4967758;28;20996;-88
2022/11/03 03:34:30;;;;;;;8.57;7.87;;;6.20;99.90;;;;;;4966121;28;20629;-87
2022/11/03 03:36:59;;;;;;;9.33;8.20;;;6.20;99.90;;;;;;4971389;28;20656;-88
2022/11/03 03:39:31;;;;;;;9.13;8.33;;;6.50;99.90;;;;;;4965540;28;20637;-87
2022/11/03 03:42:00;;;;;;;10.90;9.90;;;6.00;99.90;;;;;;4974369;28;20669;-87
2022/11/03 03:44:29;;;;;;;9.80;8.47;;;6.20;99.90;;;;;;4970439;28;20665;-87
2022/11/03 03:47:00;;;;;;;9.50;8.57;;;6.10;99.90;;;;;;4969335;28;21236;-88
2022/11/03 03:49:27;;;;;;;9.90;8.10;;;6.20;99.90;;;;;;4976561;28;20661;-87
2022/11/03 03:51:54;;;;;;;10.70;6.87;;;6.20;99.90;;;;;;4975245;28;20643;-87
2022/11/03 03:54:21;;;;;;;9.73;8.20;;;5.90;99.90;;;;;;4974240;28;20628;-87
2022/11/03 03:56:56;;;;;;;9.27;7.23;;;5.70;99.90;;;;;;4964417;28;20676;-88
2022/11/03 03:59:23;;;;;;;9.43;8.53;;;5.50;99.90;;;;;;4970688;28;21028;-87
2022/11/03 04:01:51;;;;;;;8.33;7.53;;;5.90;99.90;;;;;;4969897;28;20651;-87
2022/11/03 04:04:17;;;;;;;8.73;7.83;;;5.90;99.90;;;;;;4969173;28;20626;-88
2022/11/03 04:06:44;;;;;;;10.10;8.77;;;6.10;99.90;;;;;;4974526;28;20676;-88
2022/11/03 04:09:12;;;;;;;10.67;8.83;;;5.80;99.90;;;;;;4972975;28;20618;-88
2022/11/03 04:22:48;;;;;;;12.37;8.57;;;5.80;99.90;;;;;;4969962;28;20631;-88
2022/11/03 04:25:15;;;;;;;10.47;8.00;;;5.70;99.90;;;;;;4973424;28;20648;-88
2022/11/03 04:27:43;;;;;;;14.30;8.27;;;5.90;99.90;;;;;;4964531;28;20633;-89
2022/11/03 04:30:15;;;;;;;9.80;7.70;;;5.80;99.90;;;;;;4972731;28;20626;-88
2022/11/03 04:32:45;;;;;;;13.93;9.03;;;5.30;99.90;;;;;;4971786;28;20629;-88
2022/11/03 04:35:17;;;;;;;10.23;8.60;;;5.80;99.90;;;;;;4972782;28;20649;-87
2022/11/03 04:37:44;;;;;;;10.53;8.43;;;5.50;99.90;;;;;;4967237;28;20629;-87
2022/11/03 04:40:15;;;;;;;10.70;8.93;;;5.80;99.90;;;;;;4970976;28;20664;-88
2022/11/03 04:42:43;;;;;;;10.10;7.20;;;5.80;99.90;;;;;;4969530;28;20683;-88
2022/11/03 04:45:20;;;;;;;9.57;8.00;;;5.70;99.90;;;;;;4966097;28;20649;-88
2022/11/03 04:47:49;;;;;;;10.80;8.77;;;5.70;99.90;;;;;;4967740;28;20633;-91
2022/11/03 04:50:19;;;;;;;14.50;9.00;;;5.70;99.90;;;;;;4971008;28;20629;-88
2022/11/03 04:52:46;;;;;;;11.97;9.10;;;5.70;99.90;;;;;;4970416;28;20992;-89
2022/11/03 04:55:17;;;;;;;12.00;8.43;;;5.50;99.90;;;;;;4972609;28;21265;-89
2022/11/03 04:57:44;;;;;;;10.77;8.93;;;5.60;99.90;;;;;;4974965;28;20642;-91
2022/11/03 05:00:15;;;;;;;11.40;7.77;;;5.50;99.90;;;;;;4975766;28;20795;-89
2022/11/03 05:02:44;;;;;;;11.70;8.50;;;5.90;99.90;;;;;;4973315;28;20740;-88
2022/11/03 05:05:21;;;;;;;11.53;8.70;;;5.50;99.90;;;;;;4975195;28;20673;-88
2022/11/03 05:07:51;;;;;;;12.10;8.57;;;5.70;99.90;;;;;;4968783;28;20654;-88
2022/11/03 05:10:20;;;;;;;10.10;9.00;;;5.10;99.90;;;;;;4974539;28;20625;-88
2022/11/03 05:12:48;;;;;;;12.20;9.00;;;5.60;99.90;;;;;;4971336;28;20639;-88
2022/11/03 05:15:29;;;;;;;12.77;8.00;;;5.10;99.90;;;;;;4970763;28;20656;-88
2022/11/03 05:17:58;;;;;;;11.43;8.90;;;5.60;99.90;;;;;;4971487;28;20636;-88
2022/11/03 05:20:31;;;;;;;12.23;9.23;;;5.60;99.90;;;;;;4984036;28;21181;-88
2022/11/03 05:22:59;;;;;;;11.67;8.43;;;5.60;99.90;;;;;;4971161;28;20677;-87
2022/11/03 05:25:36;;;;;;;10.53;8.03;;;5.70;99.90;;;;;;4977194;28;20625;-87
2022/11/03 05:28:03;;;;;;;11.10;8.73;;;5.70;99.90;;;;;;4976802;28;20704;-87
2022/11/03 05:30:31;;;;;;;11.00;8.80;;;5.50;99.90;;;;;;4982952;28;20636;-87
2022/11/03 05:32:58;;;;;;;9.10;7.97;;;5.30;99.90;;;;;;4973798;28;20627;-87
2022/11/03 05:35:25;;;;;;;10.17;9.20;;;5.40;99.90;;;;;;4974217;28;20635;-87
2022/11/03 05:37:53;;;;;;;9.33;8.50;;;5.40;99.90;;;;;;4976542;28;20736;-87
2022/11/03 05:40:23;;;;;;;9.43;8.63;;;5.50;99.90;;;;;;4974076;28;20630;-87
2022/11/03 05:42:53;;;;;;;9.70;8.57;;;5.60;99.90;;;;;;4972519;28;20667;-86
2022/11/03 05:45:24;;;;;;;8.67;7.77;;;5.60;99.90;;;;;;4973397;28;20636;-87
2022/11/03 05:47:54;;;;;;;9.30;8.40;;;5.40;99.90;;;;;;4972524;28;20628;-87
2022/11/03 05:50:24;;;;;;;9.90;8.90;;;5.60;99.90;;;;;;4972587;28;21195;-87
2022/11/03 05:52:54;;;;;;;9.80;8.80;;;5.60;99.90;;;;;;4974500;28;20621;-88
2022/11/03 05:55:26;;;;;;;10.53;9.13;;;5.20;99.90;;;;;;4973043;28;20656;-87
2022/11/03 05:57:55;;;;;;;11.20;8.63;;;5.30;99.90;;;;;;4978961;28;20633;-88
2022/11/03 06:00:28;;;;;;;10.20;8.70;;;5.60;99.90;;;;;;4982810;28;20636;-88
2022/11/03 06:02:55;;;;;;;11.53;9.20;;;5.50;99.90;;;;;;4975687;28;20666;-87
2022/11/03 06:05:24;;;;;;;10.03;9.03;;;5.50;99.90;;;;;;4979829;28;20672;-88
2022/11/03 06:07:52;;;;;;;10.00;9.07;;;5.50;99.90;;;;;;4976059;28;20649;-87
2022/11/03 06:10:25;;;;;;;10.33;9.13;;;5.30;99.90;;;;;;4973804;28;20668;-88
2022/11/03 06:12:57;;;;;;;10.20;8.83;;;5.60;99.90;;;;;;4977356;28;20626;-89
2022/11/03 06:15:29;;;;;;;10.20;9.30;;;5.20;99.90;;;;;;4971363;28;20708;-89
2022/11/03 06:17:57;;;;;;;12.63;8.77;;;5.30;99.90;;;;;;4970247;28;20625;-89
2022/11/03 06:20:24;;;;;;;10.07;9.13;;;5.30;99.90;;;;;;4975995;28;21285;-91
2022/11/03 06:22:54;;;;;;;11.90;9.17;;;5.20;99.90;;;;;;4978902;28;20733;-89
2022/11/03 06:25:27;;;;;;;10.53;9.40;;;5.40;99.90;;;;;;4981586;28;20653;-90
2022/11/03 06:27:59;;;;;;;12.87;9.80;;;5.50;99.90;;;;;;4988629;28;20960;-89
2022/11/03 06:30:29;;;;;;;11.97;10.30;;;5.40;99.90;;;;;;4981250;28;20630;-89
2022/11/03 06:33:06;;;;;;;10.40;9.47;;;5.00;99.90;;;;;;4989467;28;20625;-90
2022/11/03 06:35:35;;;;;;;10.80;9.80;;;5.40;99.90;;;;;;4996129;28;20679;-89
2022/11/03 06:38:02;;;;;;;10.40;8.83;;;5.60;99.90;;;;;;4988297;28;20628;-89
2022/11/03 06:40:38;;;;;;;9.50;8.50;;;5.40;99.90;;;;;;4988123;28;20657;-90
2022/11/03 06:43:19;;;;;;;15.13;11.00;;;5.60;99.90;;;;;;4979729;28;20681;-89
2022/11/03 06:45:50;;;;;;;10.40;9.37;;;5.40;99.90;;;;;;4979075;28;20711;-89
2022/11/03 06:48:25;;;;;;;13.67;9.97;;;5.50;99.90;;;;;;4976873;28;20630;-88
2022/11/03 06:50:52;;;;;;;10.57;9.20;;;5.30;99.90;;;;;;4972927;28;20643;-88
2022/11/03 06:53:22;;;;;;;11.60;10.00;;;5.40;99.90;;;;;;4968856;28;20633;-88
2022/11/03 06:55:51;;;;;;;10.73;9.63;;;5.10;99.90;;;;;;4971451;28;20653;-88
2022/11/03 06:58:28;;;;;;;11.90;10.80;;;5.60;99.90;;;;;;4983067;28;20629;-88
2022/11/03 07:00:58;;;;;;;11.03;9.93;;;5.50;99.90;;;;;;4970214;28;20633;-88
2022/11/03 07:03:30;;;;;;;12.03;10.50;;;5.70;99.90;;;;;;4976102;28;20681;-87
2022/11/03 07:05:58;;;;;;;12.53;11.30;;;5.60;99.90;;;;;;4978255;28;20667;-88
2022/11/03 07:08:28;;;;;;;12.17;10.30;;;5.80;99.90;;;;;;4973550;28;20683;-88
2022/11/03 07:11:11;;;;;;;11.70;10.60;;;5.90;99.90;;;;;;4970479;28;20633;-87
2022/11/03 07:13:38;;;;;;;11.90;10.53;;;6.00;99.90;;;;;;4977465;28;20719;-88
2022/11/03 07:16:13;;;;;;;13.17;11.90;;;6.00;99.90;;;;;;4986246;28;20729;-88
2022/11/03 07:18:42;;;;;;;13.07;11.30;;;6.20;99.90;;;;;;4976928;28;20636;-88
2022/11/03 07:21:28;;;;;;;11.13;10.03;;;6.40;99.90;;;;;;4982773;28;20710;-89
2022/11/03 07:23:57;;;;;;;12.50;10.70;;;6.30;99.90;;;;;;4967688;28;20669;-87
2022/11/03 07:26:25;;;;;;;11.77;10.67;;;6.60;99.90;;;;;;4969621;28;20661;-88
2022/11/03 07:28:52;;;;;;;11.20;10.10;;;6.60;99.90;;;;;;4972194;28;20675;-88
2022/11/03 07:31:22;;;;;;;11.07;10.07;;;6.70;99.90;;;;;;4970388;28;20640;-88
2022/11/03 07:33:50;;;;;;;13.70;10.10;;;6.60;99.90;;;;;;4977147;28;20621;-88
2022/11/03 07:36:21;;;;;;;12.57;10.60;;;6.80;99.90;;;;;;4977479;28;20650;-88
2022/11/03 07:38:50;;;;;;;13.83;10.97;;;6.80;99.90;;;;;;4976699;28;20641;-88
2022/11/03 07:41:19;;;;;;;15.73;11.23;;;6.90;99.90;;;;;;4976887;28;20648;-88
2022/11/03 07:43:57;;;;;;;19.10;11.50;;;6.80;99.90;;;;;;4971621;28;20688;-88
2022/11/03 07:46:25;;;;;;;22.80;11.40;;;7.00;99.90;;;;;;4968345;28;20868;-89
2022/11/03 07:48:56;;;;;;;16.73;11.30;;;7.10;99.90;;;;;;4969588;28;20637;-89
2022/11/03 07:51:25;;;;;;;21.67;11.60;;;7.10;99.90;;;;;;4975798;28;20625;-88
2022/11/03 07:53:55;;;;;;;16.40;10.40;;;7.20;99.90;;;;;;4977712;28;20628;-89
2022/11/03 07:56:25;;;;;;;17.20;9.80;;;7.30;99.90;;;;;;4976015;28;20659;-87
2022/11/03 07:58:58;;;;;;;14.43;10.20;;;7.30;99.90;;;;;;4973141;28;20628;-89
2022/11/03 08:01:29;;;;;;;10.70;9.60;;;7.50;99.90;;;;;;4970637;28;20659;-88
2022/11/03 08:04:00;;;;;;;13.90;10.50;;;7.70;99.90;;;;;;4977360;28;20664;-88
2022/11/03 08:06:28;;;;;;;12.73;11.53;;;7.30;99.90;;;;;;4970339;28;20661;-89
2022/11/03 08:08:55;;;;;;;14.00;12.80;;;7.40;99.90;;;;;;4972434;28;20647;-89
2022/11/03 08:11:23;;;;;;;13.27;12.00;;;7.70;99.90;;;;;;4960056;28;20635;-89
2022/11/03 08:13:49;;;;;;;13.73;11.40;;;7.80;99.90;;;;;;4971410;28;20633;-88
2022/11/03 08:16:18;;;;;;;15.47;13.97;;;7.20;99.90;;;;;;4971566;28;20657;-89
2022/11/03 08:18:45;;;;;;;13.47;12.10;;;7.90;99.90;;;;;;4973572;28;20938;-89
2022/11/03 08:21:12;;;;;;;12.57;11.33;;;7.80;99.90;;;;;;4966347;28;20633;-89
2022/11/03 08:23:39;;;;;;;13.20;11.87;;;8.40;99.90;;;;;;4968767;28;21259;-90
2022/11/03 08:26:06;;;;;;;12.63;11.53;;;8.30;99.90;;;;;;4969424;28;20656;-90
2022/11/03 08:28:33;;;;;;;14.87;10.97;;;8.70;99.90;;;;;;4978519;28;20631;-90
2022/11/03 08:31:03;;;;;;;12.80;11.50;;;8.30;99.90;;;;;;4973258;28;20637;-89
2022/11/03 08:33:34;;;;;;;18.07;14.03;;;8.80;99.90;;;;;;4970825;28;20634;-89
2022/11/03 08:36:02;;;;;;;16.30;14.80;;;8.70;99.90;;;;;;4975513;28;20633;-90
2022/11/03 08:38:29;;;;;;;16.30;14.60;;;9.10;99.90;;;;;;4969593;28;21022;-89
2022/11/03 08:40:57;;;;;;;14.13;12.93;;;8.50;99.90;;;;;;4970514;28;20625;-90
2022/11/03 08:43:25;;;;;;;12.50;11.23;;;9.00;99.90;;;;;;4969825;28;21105;-89
2022/11/03 08:45:52;;;;;;;12.10;11.07;;;9.10;99.90;;;;;;4969453;28;21236;-89
2022/11/03 08:48:21;;;;;;;12.47;11.17;;;9.10;99.90;;;;;;4965598;28;20734;-90
2022/11/03 08:50:55;;;;;;;11.57;10.50;;;9.40;99.90;;;;;;4975821;28;20636;-90
2022/11/03 08:53:24;;;;;;;12.80;11.50;;;9.60;99.90;;;;;;4970289;28;20641;-90
2022/11/03 08:55:51;;;;;;;13.20;12.00;;;9.70;99.90;;;;;;4970362;28;20625;-90
2022/11/03 08:58:18;;;;;;;14.70;9.90;;;9.80;99.90;;;;;;4972788;28;20749;-89
2022/11/03 09:00:45;;;;;;;9.93;8.93;;;10.10;99.90;;;;;;4970779;28;20990;-90
2022/11/03 09:03:11;;;;;;;10.57;9.57;;;9.80;99.90;;;;;;4972039;28;20646;-89
2022/11/03 09:05:38;;;;;;;10.53;9.53;;;10.10;99.90;;;;;;4978720;28;21161;-88
2022/11/03 09:08:07;;;;;;;10.83;9.87;;;10.40;99.90;;;;;;4968614;28;20657;-90
2022/11/03 09:10:34;;;;;;;10.27;9.27;;;10.20;99.90;;;;;;4973858;28;21241;-90
2022/11/03 09:13:01;;;;;;;9.40;8.70;;;10.60;99.90;;;;;;4971161;28;20637;-90
2022/11/03 09:15:29;;;;;;;9.57;8.70;;;10.50;99.90;;;;;;4966782;28;20634;-89
2022/11/03 09:17:56;;;;;;;9.40;8.50;;;10.60;99.90;;;;;;4975006;28;20765;-89
2022/11/03 09:20:23;;;;;;;8.97;7.80;;;10.60;99.90;;;;;;4976415;28;20663;-89
2022/11/03 09:22:50;;;;;;;9.43;8.30;;;10.70;99.90;;;;;;4970679;28;20649;-89
2022/11/03 09:25:18;;;;;;;8.37;7.50;;;11.00;99.90;;;;;;4972621;28;20716;-91
2022/11/03 09:27:45;;;;;;;9.20;7.27;;;10.80;99.90;;;;;;4969953;28;20708;-90
2022/11/03 09:30:12;;;;;;;7.80;7.07;;;11.20;99.90;;;;;;4960515;28;20656;-89
2022/11/03 09:32:40;;;;;;;8.87;6.67;;;11.40;99.90;;;;;;4962212;28;20643;-90
2022/11/03 09:35:08;;;;;;;7.40;6.70;;;11.60;99.90;;;;;;4969349;28;21238;-91
2022/11/03 09:37:35;;;;;;;8.73;6.40;;;11.80;99.90;;;;;;4974936;28;20753;-91
2022/11/03 09:40:03;;;;;;;7.50;6.80;;;11.80;99.90;;;;;;4972748;28;20637;-90
2022/11/03 09:42:33;;;;;;;8.30;7.10;;;12.20;99.90;;;;;;4971352;28;20632;-90
2022/11/03 09:45:00;;;;;;;7.07;6.37;;;12.40;99.90;;;;;;4968465;28;20676;-89
2022/11/03 09:47:32;;;;;;;7.53;6.20;;;12.70;99.90;;;;;;4969913;28;20660;-89
2022/11/03 09:50:00;;;;;;;6.77;6.17;;;12.70;49.20;;;;;;4972940;28;20992;-91
2022/11/03 09:52:27;;;;;;;6.90;5.97;;;12.80;56.10;;;;;;4974353;28;20626;-90
2022/11/03 09:54:55;;;;;;;8.67;6.17;;;13.00;52.90;;;;;;4969857;28;20626;-91
2022/11/03 09:57:22;;;;;;;7.40;6.10;;;13.30;56.20;;;;;;4968125;28;20654;-90
2022/11/03 09:59:51;;;;;;;5.97;5.47;;;13.40;33.80;;;;;;4971966;28;20637;-89
2022/11/03 10:02:23;;;;;;;6.70;6.00;;;13.40;1.00;;;;;;4970716;28;21075;-89
2022/11/03 10:04:52;;;;;;;5.90;5.27;;;13.60;1.00;;;;;;4973660;28;20684;-89
2022/11/03 10:07:19;;;;;;;7.07;4.90;;;13.70;1.00;;;;;;4972545;28;20710;-88
2022/11/03 10:09:49;;;;;;;6.57;5.60;;;13.90;1.00;;;;;;4968667;28;20648;-89
2022/11/03 10:12:16;;;;;;;8.33;5.50;;;13.60;1.00;;;;;;4963495;28;20626;-91
2022/11/03 10:14:44;;;;;;;6.87;5.20;;;13.50;1.00;;;;;;4971940;28;21393;-85
2022/11/03 10:17:16;;;;;;;7.67;6.00;;;13.50;1.00;;;;;;4966852;28;21281;-85
2022/11/03 10:19:43;;;;;;;7.90;6.67;;;13.40;1.00;;;;;;4967099;28;20628;-87
2022/11/03 10:22:10;;;;;;;6.33;5.77;;;13.20;1.00;;;;;;4969016;28;21136;-86
2022/11/03 10:24:37;;;;;;;6.80;5.70;;;13.20;1.00;;;;;;4965468;28;20676;-89
2022/11/03 10:27:04;;;;;;;7.20;6.50;;;13.00;1.00;;;;;;4969401;28;20662;-87
2022/11/03 10:29:32;;;;;;;7.67;6.23;;;12.90;1.00;;;;;;4965791;28;20646;-86
2022/11/03 10:31:59;;;;;;;6.63;6.03;;;12.70;1.00;;;;;;4966421;28;20990;-86
2022/11/03 10:34:36;;;;;;;10.50;8.30;;;12.90;1.00;;;;;;4971465;28;20656;-86
2022/11/03 10:37:13;;;;;;;8.97;7.40;;;12.70;19.70;;;;;;4967558;28;21591;-86
2022/11/03 10:39:40;;;;;;;8.47;7.77;;;12.80;29.90;;;;;;4960636;28;20652;-87
2022/11/03 10:42:17;;;;;;;8.50;7.70;;;12.60;8.80;;;;;;4967994;28;20614;-87
2022/11/03 10:44:44;;;;;;;8.30;5.63;;;12.90;8.50;;;;;;4958333;28;20671;-87
2022/11/03 10:47:24;;;;;;;7.03;6.00;;;13.10;1.00;;;;;;4965785;28;20650;-87
2022/11/03 10:49:53;;;;;;;7.33;6.53;;;12.60;1.00;;;;;;4976669;28;20620;-88
2022/11/03 10:52:23;;;;;;;10.00;6.03;;;13.00;1.00;;;;;;4972220;28;20657;-87
2022/11/03 10:54:52;;;;;;;8.27;5.97;;;13.00;1.00;;;;;;4967447;28;20714;-86
2022/11/03 10:57:20;;;;;;;9.43;6.53;;;13.10;1.00;;;;;;4970113;28;20654;-86
2022/11/03 10:59:49;;;;;;;11.97;6.50;;;13.20;1.00;;;;;;4969084;28;20732;-87
2022/11/03 11:02:19;;;;;;;6.40;5.80;;;13.20;1.00;;;;;;4973509;28;21190;-89
2022/11/03 11:04:48;;;;;;;7.10;6.40;;;13.30;1.00;;;;;;4972499;28;20675;-93
2022/11/03 11:07:23;;;;;;;7.10;6.40;;;13.10;1.00;;;;;;4971009;28;20668;-87
2022/11/03 11:09:52;;;;;;;6.30;5.70;;;13.40;1.00;;;;;;4967920;28;20632;-89
2022/11/03 11:12:22;;;;;;;7.23;6.43;;;13.50;1.00;;;;;;4971309;28;20668;-87
2022/11/03 11:14:55;;;;;;;9.63;6.80;;;13.30;1.00;;;;;;4981205;28;20628;-88
2022/11/03 11:17:43;;;;;;;7.73;5.70;;;13.50;1.00;;;;;;4969754;28;20653;-88
2022/11/03 11:20:31;;;;;;;10.70;6.47;;;13.60;1.00;;;;;;4972138;28;20650;-88
2022/11/03 11:23:31;;;;;;;10.83;5.93;;;13.60;1.00;;;;;;4969140;28;20635;-88
2022/11/03 11:26:39;;;;;;;10.30;5.93;;;13.90;1.00;;;;;;4970647;28;20677;-89
2022/11/03 11:29:42;;;;;;;9.83;5.67;;;13.40;1.00;;;;;;4978941;28;20669;-89
2022/11/03 11:32:51;;;;;;;9.90;5.70;;;13.90;1.00;;;;;;4968391;28;20668;-89
2022/11/03 11:35:59;;;;;;;6.37;5.43;;;13.90;1.00;;;;;;4965233;28;20733;-87
2022/11/03 11:39:03;;;;;;;7.60;5.40;;;14.00;1.00;;;;;;4970578;28;20634;-88
2022/11/03 11:42:06;;;;;;;8.87;6.67;;;13.90;1.00;;;;;;4972634;28;20660;-89
2022/11/03 11:44:53;;;;;;;5.93;5.10;;;13.90;1.00;;;;;;4975096;28;20669;-89
2022/11/03 11:47:43;;;;;;;16.90;12.90;;;14.10;1.00;;;;;;4966346;28;20717;-88
2022/11/03 11:50:30;;;;;;;7.70;5.37;;;14.10;1.00;;;;;;4966468;28;20629;-89
2022/11/03 11:53:00;;;;;;;9.50;4.60;;;14.20;1.00;;;;;;4968628;28;20652;-88
2022/11/03 11:55:33;;;;;;;8.33;5.03;;;14.20;1.00;;;;;;4975023;28;20627;-88
2022/11/03 11:58:04;;;;;;;8.23;5.53;;;14.30;1.00;;;;;;4971925;28;20629;-89
2022/11/03 12:00:33;;;;;;;7.50;4.57;;;14.20;1.00;;;;;;4968933;28;20664;-88
2022/11/03 12:03:02;;;;;;;5.40;4.90;;;14.10;1.00;;;;;;4970435;28;20643;-89
2022/11/03 12:05:31;;;;;;;5.70;4.83;;;14.00;1.00;;;;;;4967772;28;21058;-88
2022/11/03 12:07:58;;;;;;;6.50;4.73;;;13.90;1.00;;;;;;4972747;28;20621;-90
2022/11/03 12:10:27;;;;;;;7.13;5.13;;;13.90;1.00;;;;;;4973916;28;20637;-89
2022/11/03 12:12:54;;;;;;;6.47;5.50;;;13.80;1.00;;;;;;4970218;28;20625;-89
2022/11/03 12:15:55;;;;;;;8.20;5.30;;;13.90;1.00;;;;;;4973370;28;20658;-89
2022/11/03 12:18:33;;;;;;;6.63;6.10;;;13.90;1.00;;;;;;4972946;28;20624;-90
2022/11/03 12:21:00;;;;;;;6.10;5.47;;;13.80;1.00;;;;;;4972670;28;20707;-89
2022/11/03 12:23:41;;;;;;;7.03;5.30;;;13.70;1.00;;;;;;4977448;28;20641;-89
2022/11/03 12:26:16;;;;;;;7.97;5.30;;;13.40;1.00;;;;;;4970437;28;20682;-89
2022/11/03 12:28:44;;;;;;;5.80;5.23;;;13.60;1.00;;;;;;4971373;28;20637;-90
2022/11/03 12:31:12;;;;;;;8.67;5.70;;;13.30;1.00;;;;;;4971490;28;21221;-89
2022/11/03 12:33:39;;;;;;;6.70;5.30;;;13.60;1.00;;;;;;4965807;28;20633;-90
2022/11/03 12:36:06;;;;;;;9.63;5.20;;;13.60;1.00;;;;;;4969641;28;20633;-90
2022/11/03 12:38:33;;;;;;;5.57;5.07;;;13.50;1.00;;;;;;4971982;28;20636;-90
2022/11/03 12:41:19;;;;;;;8.43;6.13;;;13.70;1.00;;;;;;4969209;28;20653;-88
2022/11/03 12:43:47;;;;;;;8.80;6.80;;;13.40;1.00;;;;;;4970947;28;20657;-89
2022/11/03 12:46:15;;;;;;;6.80;6.10;;;13.40;1.00;;;;;;4968305;28;20684;-90
2022/11/03 12:48:42;;;;;;;6.93;6.20;;;13.40;1.00;;;;;;4970202;28;20680;-88
2022/11/03 12:51:13;;;;;;;7.13;5.90;;;13.00;1.00;;;;;;4970262;28;21063;-90
2022/11/03 12:53:40;;;;;;;12.73;6.77;;;13.40;1.00;;;;;;4966192;28;20629;-89
2022/11/03 12:56:08;;;;;;;9.23;6.73;;;13.00;1.00;;;;;;4969452;28;20630;-89
2022/11/03 12:58:36;;;;;;;7.30;6.57;;;13.30;1.00;;;;;;4975541;28;20653;-90
2022/11/03 13:01:02;;;;;;;9.10;6.33;;;13.20;1.00;;;;;;4968532;28;20729;-90
2022/11/03 13:03:31;;;;;;;8.83;6.60;;;13.30;1.00;;;;;;4974844;28;20625;-90
2022/11/03 13:05:58;;;;;;;6.80;5.87;;;13.30;1.00;;;;;;4970443;28;20666;-89
2022/11/03 13:08:25;;;;;;;7.70;6.60;;;13.20;1.00;;;;;;4970301;28;20661;-90
2022/11/03 13:10:52;;;;;;;7.23;6.50;;;13.30;1.00;;;;;;4980679;28;20635;-90
2022/11/03 13:13:19;;;;;;;7.10;6.50;;;13.20;1.00;;;;;;4966970;28;20996;-89
2022/11/03 13:15:46;;;;;;;7.37;6.57;;;13.10;1.00;;;;;;4974194;28;20625;-89
2022/11/03 13:18:13;;;;;;;11.27;6.90;;;13.00;1.00;;;;;;4972271;28;20665;-89
2022/11/03 13:20:42;;;;;;;8.63;6.90;;;13.30;1.00;;;;;;4974729;28;20649;-88
2022/11/03 13:23:08;;;;;;;9.13;6.97;;;13.40;1.00;;;;;;4969713;28;21205;-87
2022/11/03 13:25:35;;;;;;;10.90;6.77;;;13.30;1.00;;;;;;4967250;28;20665;-87